Terminal Aerodrome Forecast
Issued by NWS

Home | Current Version | Previous Version | Text Only | Print | Product List | Glossary On
Versions: 1 2 3 4 5 6 7 8 9 10 11 12 13 14 15 16 17 18
000
FTUS41 KBTV 171730
TAFSLK
TAF
KSLK 171730Z 1718/1818 06009KT P6SM OVC150
     FM172100 06009KT P6SM OVC070
     FM172200 09007KT 6SM -FZRA OVC035
     FM180000 12008KT 3SM -FZRAPL BR OVC025
     FM180300 13008KT 1SM -SN BR OVC020
     FM181200 08004KT 2SM -SN BR OVC015=

USA.gov is the U.S. government's official web portal to all federal, state and local government web resources and services.